Soldotna, AK (99669)

10:13 AM AKDT on August 04, 2015 (GMT -0800)
Funny River | | Change Station
CLOSE
Current Station
Personal Weather Station
Location: Funny River, AK
Elevation: 208 ft
Nearby Weather Stations

Elev 208 ft 60.51 °N, 150.80 °W | Updated 5 minutes ago

Clear
Clear
69.4 °F
Feels Like 69.4 °F
N
0.0
Wind Variable Wind from NW
Gusts 1.0 mph

Today
High -- | Low -- °F
--% Chance of Precip.
Yesterday
High -- | Low -- °F
Precip. -- in
5:49 AM 10:30 PM
Waning Gibbous, 75% visible
Pressure 29.96 in
Visibility 10.0 miles
Clouds Clear
Dew Point 51 °F
Humidity 52%
Rainfall 0.00 in
Snow Depth Not available.
UV 3 out of 12
Pollen Not available.
Air Quality Not available.
Flu Activity Not available.
METAR PASX 041756Z AUTO 00000KT 10SM CLR 16/09 A2996 RMK AO1 57007

More Conditions Fewer Conditions

Pressure 29.96 in
Visibility 10.0 miles
Clouds Clear
Dew Point 51 °F
Humidity 52%
Rainfall 0.00 in
Snow Depth Not available.
UV 3 out of 12
Pollen Not available.
Air Quality Not available.
Flu Activity Not available.
METAR PASX 041756Z AUTO 00000KT 10SM CLR 16/09 A2996 RMK AO1 57007

More Conditions Fewer Conditions

10-Day Weather Forecast

×

Almanac

Astronomy

Aug. 04, 2015 Rise Set
Actual Time
Civil Twilight
Nautical Twilight
Astronomical Twilight
Moon
Length of Visible Light
Length of Day
Tomorrow will be .
, % of the Moon is Illuminated

Today's Extremes

State Highs State Lows

Community

WunderPhotos

Upload Photos

1,843,935 photos uploaded!

WunderBlogs® & News

Nearby

Air Quality

  Air Quality AQ Index Pollutant
Not available.

Snow Depth

Station Depth Elevation

Earthquake Activity

City Distance Mag. Time & Date
Minimum magnitude displayed is 2.5.

Coastal Water Temperatures

Place Temperature

Stations

Nearby Weather Stations

Station Location Temp. Windchill Dew Point Humidity Wind Precip. Elev Updated Type